MMSD/SJD METAR and TAF weather

Enter ICAO airport designator
Station Type Date Time Source
MMSD METAR 2019/12/08 16:40 UTC NOAA

MMSD 081640Z 27006KT 10SM SKC 23/17 A3011


Station Type Date Time Source
MMSD Decoded METAR 2019/12/08 16:40 UTC NOAA

San Jose Del Cabo , Mexico (MMSD) 23-09N 109-42W
Dec 08, 2019 - 11:40 AM EST / 2019.12.08 1640 UTC
Wind: from the W (270 degrees) at 7 MPH (6 KT):0
Visibility: 10 mile(s):0
Sky conditions: clear
Temperature: 73 F (23 C)
Dew Point: 62 F (17 C)
Relative Humidity: 68%
Pressure (altimeter): 30.11 in. Hg (1019 hPa)
ob: MMSD 081640Z 27006KT 10SM SKC 23/17 A3011
cycle: 16

Station Type Date Time Source
MMSD TAF 2019/12/08 18:17 UTC NOAA

TAF MMSD 081610Z 0818/0918 14010KT P6SM SKC
FM090400 30005KT P6SM SKC
FM091700 13010KT P6SM SKC

Example: see airport list